createdAt,value
2023-04-25T00:00:53.505Z,6.18
2023-04-25T00:03:20.508Z,6.00
2023-04-25T00:05:47.326Z,6.18
2023-04-25T00:08:13.948Z,5.68
2023-04-25T00:10:40.536Z,5.43
2023-04-25T00:13:07.350Z,6.05
2023-04-25T00:15:33.773Z,6.43
2023-04-25T00:18:00.597Z,6.22
2023-04-25T00:20:27.293Z,6.47
2023-04-25T00:22:54.469Z,6.38
2023-04-25T00:25:21.001Z,7.03
2023-04-25T00:27:47.636Z,6.97
2023-04-25T00:30:15.028Z,7.72
2023-04-25T00:32:41.923Z,6.85
2023-04-25T00:35:08.671Z,6.90
2023-04-25T00:37:35.417Z,6.95
2023-04-25T00:40:01.831Z,7.68
2023-04-25T00:42:29.452Z,7.80
2023-04-25T00:44:56.694Z,7.55
2023-04-25T00:47:23.792Z,7.53
2023-04-25T00:49:50.492Z,7.97
2023-04-25T00:52:17.232Z,7.55
2023-04-25T00:54:44.077Z,6.63
2023-04-25T00:57:11.717Z,6.97
2023-04-25T00:59:38.587Z,7.40
2023-04-25T01:02:05.952Z,7.00
2023-04-25T01:04:32.489Z,7.35
2023-04-25T01:06:59.085Z,7.70
2023-04-25T01:09:25.832Z,7.82
2023-04-25T01:11:52.407Z,7.88
2023-04-25T01:14:19.041Z,8.05
2023-04-25T01:16:46.122Z,8.32
2023-04-25T01:19:22.595Z,8.38
2023-04-25T01:21:49.420Z,8.50
2023-04-25T01:24:16.000Z,7.80
2023-04-25T01:26:45.479Z,7.20
2023-04-25T01:29:12.396Z,7.20
2023-04-25T01:31:39.459Z,7.40
2023-04-25T01:34:06.229Z,8.07
2023-04-25T01:36:33.149Z,7.90
2023-04-25T01:39:01.849Z,7.72
2023-04-25T01:41:28.761Z,8.40
2023-04-25T01:43:55.475Z,7.45
2023-04-25T01:46:22.345Z,8.43
2023-04-25T01:48:49.083Z,8.02
2023-04-25T01:51:16.402Z,7.60
2023-04-25T01:53:43.840Z,7.72
2023-04-25T01:56:10.967Z,7.82
2023-04-25T01:58:37.607Z,6.70
2023-04-25T02:01:04.185Z,6.90
2023-04-25T02:03:38.861Z,7.03
2023-04-25T02:06:10.201Z,7.10
2023-04-25T02:08:41.295Z,6.60
2023-04-25T02:11:07.854Z,6.30
2023-04-25T02:13:41.420Z,6.25
2023-04-25T02:16:17.332Z,6.70
2023-04-25T02:18:44.127Z,6.25
2023-04-25T02:21:10.765Z,5.63
2023-04-25T02:23:37.386Z,6.22
2023-04-25T02:26:04.071Z,6.35
2023-04-25T02:28:31.365Z,6.45
2023-04-25T02:30:57.960Z,5.80
2023-04-25T02:33:25.016Z,6.05
2023-04-25T02:35:51.464Z,6.10
2023-04-25T02:38:17.997Z,5.88
2023-04-25T02:40:44.600Z,5.85
2023-04-25T02:43:11.164Z,5.68
2023-04-25T02:45:38.782Z,5.88
2023-04-25T02:48:05.520Z,5.30
2023-04-25T02:50:32.851Z,5.63
2023-04-25T02:52:59.941Z,5.90
2023-04-25T02:55:32.905Z,5.70
2023-04-25T02:58:01.927Z,5.85
2023-04-25T03:00:42.099Z,6.00
2023-04-25T03:03:08.834Z,5.65
2023-04-25T03:05:35.562Z,5.70
2023-04-25T03:08:02.092Z,5.53
2023-04-25T03:10:29.810Z,5.30
2023-04-25T03:13:00.448Z,5.63
2023-04-25T03:15:27.539Z,4.93
2023-04-25T03:17:54.097Z,5.00
2023-04-25T03:20:20.764Z,5.10
2023-04-25T03:22:47.591Z,5.00
2023-04-25T03:25:14.192Z,5.55
2023-04-25T03:27:41.116Z,5.47
2023-04-25T03:30:08.818Z,5.10
2023-04-25T03:32:37.798Z,5.35
2023-04-25T03:35:04.649Z,5.90
2023-04-25T03:37:32.023Z,5.57
2023-04-25T03:39:58.874Z,6.15
2023-04-25T03:42:33.172Z,5.95
2023-04-25T03:44:59.776Z,6.13
2023-04-25T03:47:26.559Z,5.88
2023-04-25T03:49:53.412Z,6.00
2023-04-25T03:52:22.584Z,6.68
2023-04-25T03:54:49.141Z,6.85
2023-04-25T03:57:18.755Z,6.90
2023-04-25T03:59:45.694Z,6.68
2023-04-25T04:02:14.579Z,6.43
2023-04-25T04:04:41.801Z,6.93
2023-04-25T04:07:08.657Z,6.50
2023-04-25T04:09:37.588Z,7.53
2023-04-25T04:12:08.632Z,7.60
2023-04-25T04:14:38.239Z,6.70
2023-04-25T04:17:05.059Z,6.88
2023-04-25T04:19:31.594Z,7.13
2023-04-25T04:22:24.667Z,7.63
2023-04-25T04:24:55.204Z,7.32
2023-04-25T04:27:35.788Z,7.18
2023-04-25T04:30:30.369Z,6.72
2023-04-25T04:32:59.347Z,7.57
2023-04-25T04:35:25.891Z,7.55
2023-04-25T04:37:52.391Z,6.95
2023-04-25T04:40:20.246Z,6.90
2023-04-25T04:43:02.051Z,6.57
2023-04-25T04:45:28.678Z,5.97
2023-04-25T04:48:09.751Z,6.80
2023-04-25T04:50:56.895Z,6.35
2023-04-25T04:53:41.974Z,5.82
2023-04-25T04:56:30.344Z,5.90
2023-04-25T04:59:13.007Z,6.05
2023-04-25T05:01:57.879Z,5.85
2023-04-25T05:04:48.131Z,6.05
2023-04-25T05:07:37.755Z,6.03
2023-04-25T05:10:19.946Z,6.13
2023-04-25T05:13:06.656Z,5.90
2023-04-25T05:16:00.481Z,6.40
2023-04-25T05:18:45.998Z,5.78
2023-04-25T05:21:41.889Z,5.82
2023-04-25T05:24:37.393Z,5.55
2023-04-25T05:27:27.554Z,5.18
2023-04-25T05:30:07.858Z,5.90
2023-04-25T05:32:53.787Z,4.72
2023-04-25T05:35:20.791Z,5.50
2023-04-25T05:37:48.923Z,5.38
2023-04-25T05:40:16.590Z,5.25
2023-04-25T05:43:12.083Z,4.97
2023-04-25T05:45:47.838Z,5.38
2023-04-25T05:48:43.940Z,4.97
2023-04-25T05:51:29.318Z,6.18
2023-04-25T05:54:07.003Z,5.75
2023-04-25T05:56:34.464Z,5.43
2023-04-25T05:59:01.431Z,5.20
2023-04-25T06:01:27.886Z,4.70
2023-04-25T06:03:54.712Z,4.97
2023-04-25T06:06:21.486Z,5.53
2023-04-25T06:08:48.004Z,5.22
2023-04-25T06:11:14.580Z,4.90
2023-04-25T06:13:41.355Z,5.10
2023-04-25T06:16:08.590Z,5.32
2023-04-25T06:18:35.309Z,5.25
2023-04-25T06:21:02.134Z,4.82
2023-04-25T06:23:33.506Z,5.05
2023-04-25T06:26:06.523Z,4.40
2023-04-25T06:28:41.308Z,4.70
2023-04-25T06:31:09.187Z,4.35
2023-04-25T06:33:40.257Z,4.35
2023-04-25T06:36:06.886Z,4.47
2023-04-25T06:38:34.448Z,4.43
2023-04-25T06:41:01.684Z,4.00
2023-04-25T06:43:34.442Z,4.65
2023-04-25T06:46:08.621Z,4.88
2023-04-25T06:48:44.797Z,5.07
2023-04-25T06:51:14.277Z,5.30
2023-04-25T06:53:41.538Z,4.43
2023-04-25T06:56:12.355Z,4.30
2023-04-25T06:58:50.723Z,4.60
2023-04-25T07:01:36.349Z,4.25
2023-04-25T07:04:07.230Z,4.15
2023-04-25T07:06:39.185Z,3.83
2023-04-25T07:09:06.376Z,4.45
2023-04-25T07:11:32.920Z,4.18
2023-04-25T07:14:00.824Z,3.90
2023-04-25T07:16:27.407Z,3.50
2023-04-25T07:18:55.305Z,4.07
2023-04-25T07:21:23.245Z,3.95
2023-04-25T07:23:52.019Z,3.53
2023-04-25T07:26:25.301Z,5.70
2023-04-25T07:29:14.477Z,4.68
2023-04-25T07:31:43.138Z,4.32
2023-04-25T07:34:10.900Z,4.35
2023-04-25T07:36:38.759Z,4.80
2023-04-25T07:39:06.109Z,4.45
2023-04-25T07:41:39.501Z,4.47
2023-04-25T07:44:11.632Z,5.05
2023-04-25T07:46:38.227Z,4.43
2023-04-25T07:49:09.386Z,4.68
2023-04-25T07:51:36.301Z,5.03
2023-04-25T07:54:11.989Z,4.90
2023-04-25T07:56:52.894Z,4.90
2023-04-25T07:59:26.363Z,4.72
2023-04-25T08:01:55.324Z,4.70
2023-04-25T08:04:23.734Z,4.68
2023-04-25T08:06:55.389Z,4.45
2023-04-25T08:09:28.060Z,4.38
2023-04-25T08:11:56.242Z,4.63
2023-04-25T08:14:28.138Z,4.90
2023-04-25T08:16:57.732Z,4.88
2023-04-25T08:19:25.177Z,4.72
2023-04-25T08:21:52.829Z,4.32
2023-04-25T08:24:25.190Z,4.97
2023-04-25T08:26:52.306Z,4.72
2023-04-25T08:29:21.097Z,4.32
2023-04-25T08:32:03.254Z,4.65
2023-04-25T08:34:30.857Z,4.75
2023-04-25T08:37:00.798Z,4.25
2023-04-25T08:39:39.825Z,3.80
2023-04-25T08:42:31.901Z,4.10
2023-04-25T08:45:00.218Z,3.72
2023-04-25T08:47:34.522Z,3.58
2023-04-25T08:50:02.391Z,3.83
2023-04-25T08:52:31.207Z,3.10
2023-04-25T08:54:58.363Z,3.25
2023-04-25T08:57:26.043Z,3.40
2023-04-25T08:59:52.881Z,3.63
2023-04-25T09:02:21.914Z,3.38
2023-04-25T09:04:50.796Z,3.35
2023-04-25T09:07:19.687Z,3.08
2023-04-25T09:09:46.519Z,2.70
2023-04-25T09:12:17.033Z,3.03
2023-04-25T09:14:44.816Z,3.22
2023-04-25T09:17:22.395Z,3.88
2023-04-25T09:19:52.334Z,4.00
2023-04-25T09:22:24.242Z,4.00
2023-04-25T09:24:52.322Z,4.45
2023-04-25T09:27:24.902Z,3.85
2023-04-25T09:30:29.849Z,4.35
2023-04-25T09:36:06.622Z,4.75
2023-04-25T09:38:52.471Z,4.70
2023-04-25T09:44:01.428Z,4.55
2023-04-25T09:46:37.513Z,4.65
2023-04-25T09:49:21.809Z,5.30
2023-04-25T09:52:01.226Z,4.80
2023-04-25T09:54:35.506Z,5.15
2023-04-25T09:57:19.239Z,4.30
2023-04-25T09:59:53.157Z,4.30
2023-04-25T10:02:23.016Z,4.78
2023-04-25T10:04:57.221Z,4.53
2023-04-25T10:07:37.446Z,5.03
2023-04-25T10:10:15.551Z,5.05
2023-04-25T10:13:08.146Z,5.13
2023-04-25T10:15:40.303Z,4.85
2023-04-25T10:18:09.591Z,5.15
2023-04-25T10:20:36.117Z,7.82
2023-04-25T10:23:14.479Z,8.27
2023-04-25T10:25:43.910Z,8.07
2023-04-25T10:28:10.356Z,8.48
2023-04-25T10:30:41.225Z,7.40
2023-04-25T10:33:17.788Z,7.22
2023-04-25T10:35:46.021Z,6.60
2023-04-25T10:38:14.646Z,6.82
2023-04-25T10:40:43.758Z,6.68
2023-04-25T10:43:33.622Z,5.70
2023-04-25T10:46:04.333Z,5.57
2023-04-25T10:48:33.006Z,5.90
2023-04-25T10:51:14.594Z,4.93
2023-04-25T10:53:41.710Z,5.30
2023-04-25T10:56:14.525Z,5.63
2023-04-25T10:58:52.293Z,5.80
2023-04-25T11:01:26.259Z,6.20
2023-04-25T11:03:58.723Z,7.00
2023-04-25T11:06:44.412Z,6.50
2023-04-25T11:09:17.474Z,5.70
2023-04-25T11:11:54.577Z,5.70
2023-04-25T11:14:21.796Z,5.15
2023-04-25T11:16:48.572Z,6.00
2023-04-25T11:19:15.100Z,6.60
2023-04-25T11:21:41.590Z,6.78
2023-04-25T11:24:08.100Z,6.75
2023-04-25T11:26:34.638Z,5.95
2023-04-25T11:29:01.900Z,6.45
2023-04-25T11:31:28.501Z,5.55
2023-04-25T11:33:56.192Z,6.05
2023-04-25T11:36:23.848Z,5.97
2023-04-25T11:38:51.146Z,4.47
2023-04-25T11:41:17.829Z,4.80
2023-04-25T11:43:44.610Z,4.75
2023-04-25T11:46:11.219Z,4.60
2023-04-25T11:48:38.573Z,5.63
2023-04-25T11:51:05.552Z,4.93
2023-04-25T11:53:32.289Z,4.75
2023-04-25T11:56:00.002Z,4.82
2023-04-25T11:58:26.964Z,4.68
2023-04-25T12:00:53.671Z,4.57
2023-04-25T12:03:20.758Z,5.15
2023-04-25T12:05:52.344Z,4.80
2023-04-25T12:08:20.771Z,4.13
2023-04-25T12:10:48.971Z,4.38
2023-04-25T12:13:22.668Z,5.18
2023-04-25T12:15:49.910Z,4.57
2023-04-25T12:18:19.714Z,5.00
2023-04-25T12:20:46.258Z,4.88
2023-04-25T12:23:14.155Z,4.50
2023-04-25T12:25:41.047Z,4.47
2023-04-25T12:28:21.758Z,5.18
2023-04-25T12:31:07.902Z,4.88
2023-04-25T12:33:37.409Z,5.05
2023-04-25T12:36:11.929Z,7.43
2023-04-25T12:38:43.322Z,5.63
2023-04-25T12:41:10.013Z,6.13
2023-04-25T12:43:39.812Z,6.00
2023-04-25T12:46:06.587Z,5.20
2023-04-25T12:48:33.775Z,5.60
2023-04-25T12:51:01.607Z,4.43
2023-04-25T12:53:28.065Z,5.63
2023-04-25T12:58:22.160Z,4.38
2023-04-25T13:00:48.897Z,4.60
2023-04-25T13:03:16.632Z,4.40
2023-04-25T13:05:43.666Z,3.90
2023-04-25T13:08:37.026Z,3.45
2023-04-25T13:11:07.458Z,3.78
2023-04-25T13:13:35.281Z,3.97
2023-04-25T13:16:05.542Z,3.83
2023-04-25T13:18:37.923Z,4.13
2023-04-25T13:21:04.343Z,4.05
2023-04-25T13:23:36.582Z,4.13
2023-04-25T13:26:05.274Z,3.90
2023-04-25T13:28:34.281Z,3.60
2023-04-25T13:31:00.824Z,4.30
2023-04-25T13:33:29.761Z,3.83
2023-04-25T13:35:57.515Z,3.30
2023-04-25T13:38:26.754Z,3.47
2023-04-25T13:40:54.080Z,3.70
2023-04-25T13:43:23.541Z,3.58
2023-04-25T13:45:53.812Z,3.85
2023-04-25T13:48:22.309Z,3.38
2023-04-25T13:50:49.115Z,3.38
2023-04-25T14:01:28.308Z,3.50
2023-04-25T14:04:50.659Z,3.92
2023-04-25T14:08:28.432Z,3.78
2023-04-25T14:10:57.590Z,4.60
2023-04-25T14:14:20.577Z,3.70
2023-04-25T14:16:43.599Z,4.20
2023-04-25T14:19:10.114Z,4.40
2023-04-25T14:21:36.612Z,4.50
2023-04-25T14:24:03.571Z,4.78
2023-04-25T14:26:30.219Z,4.40
2023-04-25T14:28:56.741Z,4.90
2023-04-25T14:31:23.274Z,4.47
2023-04-25T14:33:50.263Z,4.88
2023-04-25T14:36:17.870Z,4.30
2023-04-25T14:38:44.792Z,4.75
2023-04-25T14:41:17.506Z,4.18
2023-04-25T14:43:45.915Z,4.60
2023-04-25T14:46:18.491Z,5.07
2023-04-25T14:48:46.197Z,4.88
2023-04-25T14:51:19.699Z,6.45
2023-04-25T14:53:47.533Z,4.82
2023-04-25T14:56:16.051Z,5.85
2023-04-25T14:58:42.475Z,6.22
2023-04-25T15:01:11.611Z,3.88
2023-04-25T15:03:38.146Z,4.63
2023-04-25T15:06:10.928Z,5.53
2023-04-25T15:08:37.464Z,4.63
2023-04-25T15:11:04.171Z,3.28
2023-04-25T15:13:30.959Z,5.10
2023-04-25T15:15:57.507Z,3.70
2023-04-25T15:18:24.747Z,5.15
2023-04-25T15:20:52.371Z,4.13
2023-04-25T15:23:19.424Z,4.65
2023-04-25T15:25:48.543Z,3.92
2023-04-25T15:28:19.789Z,2.83
2023-04-25T15:30:50.287Z,2.80
2023-04-25T15:33:17.423Z,2.90
2023-04-25T15:35:46.440Z,3.50
2023-04-25T15:38:13.164Z,3.05
2023-04-25T15:40:41.361Z,3.20
2023-04-25T15:43:15.694Z,2.90
2023-04-25T15:45:46.827Z,2.63
2023-04-25T15:48:14.763Z,2.85
2023-04-25T15:50:42.263Z,2.72
2023-04-25T15:53:10.363Z,2.83
2023-04-25T15:55:36.843Z,2.55
2023-04-25T15:58:03.347Z,3.65
2023-04-25T16:00:30.002Z,3.63
2023-04-25T16:02:56.764Z,2.65
2023-04-25T16:05:23.312Z,2.80
2023-04-25T16:07:50.269Z,2.58
2023-04-25T16:10:21.454Z,2.95
2023-04-25T16:12:51.278Z,3.15
2023-04-25T16:15:20.087Z,2.60
2023-04-25T16:17:46.710Z,2.58
2023-04-25T16:20:13.558Z,2.45
2023-04-25T16:22:40.602Z,2.47
2023-04-25T16:25:07.430Z,2.80
2023-04-25T16:27:38.114Z,2.38
2023-04-25T16:30:05.605Z,2.42
2023-04-25T16:32:32.319Z,2.28
2023-04-25T16:34:59.048Z,2.55
2023-04-25T16:37:26.388Z,2.70
2023-04-25T16:39:52.891Z,2.47
2023-04-25T16:42:19.405Z,3.17
2023-04-25T16:44:48.087Z,2.60
2023-04-25T16:47:18.713Z,2.72
2023-04-25T16:49:47.055Z,3.67
2023-04-25T16:52:20.110Z,3.03
2023-04-25T16:54:47.764Z,2.35
2023-04-25T16:57:14.805Z,2.47
2023-04-25T16:59:42.051Z,2.83
2023-04-25T17:02:14.143Z,1.90
2023-04-25T17:04:44.292Z,2.60
2023-04-25T17:07:10.900Z,1.63
2023-04-25T17:09:40.044Z,1.52
2023-04-25T17:12:07.010Z,2.22
2023-04-25T17:14:37.086Z,2.05
2023-04-25T17:17:07.122Z,1.67
2023-04-25T17:19:38.571Z,2.00
2023-04-25T17:22:05.010Z,2.05
2023-04-25T17:24:31.979Z,2.53
2023-04-25T17:27:01.836Z,2.08
2023-04-25T17:29:30.282Z,1.90
2023-04-25T17:31:58.206Z,2.00
2023-04-25T17:34:26.489Z,1.98
2023-04-25T17:36:55.334Z,2.03
2023-04-25T17:39:24.040Z,1.80
2023-04-25T17:41:50.490Z,2.28
2023-04-25T17:44:18.083Z,2.17
2023-04-25T17:46:44.612Z,2.28
2023-04-25T17:49:12.936Z,2.20
2023-04-25T17:51:41.228Z,2.75
2023-04-25T17:54:10.303Z,2.05
2023-04-25T17:56:40.679Z,2.50
2023-04-25T17:59:08.576Z,2.97
2023-04-25T18:01:42.233Z,2.50
2023-04-25T18:04:15.785Z,2.60
2023-04-25T18:06:44.752Z,2.30
2023-04-25T18:09:19.306Z,2.25
2023-04-25T18:11:47.795Z,2.08
2023-04-25T18:14:14.844Z,2.10
2023-04-25T18:16:45.293Z,2.20
2023-04-25T18:22:03.636Z,3.00
2023-04-25T18:24:35.880Z,2.33
2023-04-25T18:27:27.125Z,2.47
2023-04-25T18:29:56.206Z,3.22
2023-04-25T18:32:22.717Z,2.30
2023-04-25T18:34:51.809Z,2.38
2023-04-25T18:37:19.254Z,2.90
2023-04-25T18:39:47.221Z,3.00
2023-04-25T18:42:14.073Z,6.20
2023-04-25T18:44:45.457Z,3.58
2023-04-25T18:47:13.282Z,3.92
2023-04-25T18:49:40.480Z,4.20
2023-04-25T18:55:05.933Z,2.95
2023-04-25T18:57:33.422Z,2.47
2023-04-25T19:00:05.171Z,2.97
2023-04-25T19:02:36.115Z,2.90
2023-04-25T19:05:06.602Z,2.42
2023-04-25T19:07:33.135Z,3.05
2023-04-25T19:10:03.242Z,2.90
2023-04-25T19:12:30.801Z,3.30
2023-04-25T19:14:57.315Z,2.50
2023-04-25T19:17:28.986Z,2.78
2023-04-25T19:19:56.800Z,3.08
2023-04-25T19:22:28.540Z,2.67
2023-04-25T19:25:02.924Z,3.55
2023-04-25T19:27:36.388Z,3.20
2023-04-25T19:30:08.056Z,3.10
2023-04-25T19:32:35.313Z,3.53
2023-04-25T19:35:03.754Z,3.40
2023-04-25T19:37:30.749Z,3.05
2023-04-25T19:39:57.305Z,3.13
2023-04-25T19:42:23.827Z,3.40
2023-04-25T19:44:53.180Z,2.72
2023-04-25T19:47:19.620Z,3.13
2023-04-25T19:49:46.076Z,3.25
2023-04-25T19:52:16.220Z,2.58
2023-04-25T19:54:42.744Z,3.63
2023-04-25T19:57:09.514Z,3.45
2023-04-25T19:59:35.975Z,3.67
2023-04-25T20:02:04.519Z,3.42
2023-04-25T20:04:31.334Z,3.47
2023-04-25T20:06:58.236Z,3.72
2023-04-25T20:09:24.816Z,4.22
2023-04-25T20:11:51.574Z,3.78
2023-04-25T20:14:18.004Z,3.58
2023-04-25T20:16:44.525Z,3.67
2023-04-25T20:19:11.493Z,3.47
2023-04-25T20:21:38.668Z,3.78
2023-04-25T20:24:05.311Z,3.10
2023-04-25T20:26:34.201Z,3.80
2023-04-25T20:29:01.810Z,3.40
2023-04-25T20:31:29.345Z,3.22
2023-04-25T20:33:55.864Z,3.42
2023-04-25T20:36:22.405Z,3.58
2023-04-25T20:38:49.749Z,2.88
2023-04-25T20:41:18.244Z,3.28
2023-04-25T20:43:48.475Z,3.10
2023-04-25T20:46:16.092Z,3.35
2023-04-25T20:48:44.506Z,3.20
2023-04-25T20:51:12.025Z,3.20
2023-04-25T20:53:38.572Z,2.65
2023-04-25T20:56:06.719Z,3.05
2023-04-25T20:58:33.293Z,3.08
2023-04-25T21:01:00.526Z,3.58
2023-04-25T21:03:28.736Z,3.40
2023-04-25T21:05:55.530Z,3.33
2023-04-25T21:08:23.826Z,3.70
2023-04-25T21:10:50.300Z,3.03
2023-04-25T21:13:19.319Z,2.45
2023-04-25T21:15:45.802Z,2.60
2023-04-25T21:18:12.379Z,3.13
2023-04-25T21:20:39.035Z,2.80
2023-04-25T21:23:05.655Z,2.53
2023-04-25T21:25:32.353Z,2.85
2023-04-25T21:27:58.980Z,2.63
2023-04-25T21:30:26.329Z,3.03
2023-04-25T21:32:53.276Z,3.17
2023-04-25T21:35:20.432Z,2.80
2023-04-25T21:37:47.078Z,2.80
2023-04-25T21:40:16.949Z,2.58
2023-04-25T21:42:45.542Z,2.85
2023-04-25T21:45:12.352Z,3.17
2023-04-25T21:47:41.023Z,3.03
2023-04-25T21:50:08.492Z,2.63
2023-04-25T21:52:35.836Z,2.97
2023-04-25T21:55:02.588Z,3.10
2023-04-25T21:57:29.045Z,3.20
2023-04-25T21:59:55.826Z,2.85
2023-04-25T22:02:22.530Z,2.80
2023-04-25T22:04:49.582Z,4.03
2023-04-25T22:07:16.100Z,2.90
2023-04-25T22:09:53.703Z,2.97
2023-04-25T22:12:23.868Z,3.72
2023-04-25T22:14:50.733Z,3.20
2023-04-25T22:17:17.978Z,2.92
2023-04-25T22:19:45.115Z,2.80
2023-04-25T22:22:11.786Z,2.95
2023-04-25T22:24:38.957Z,3.25
2023-04-25T22:27:05.409Z,2.90
2023-04-25T22:29:31.983Z,3.15
2023-04-25T22:31:58.766Z,3.05
2023-04-25T22:34:25.404Z,3.10
2023-04-25T22:36:51.895Z,3.35
2023-04-25T22:39:19.304Z,3.45
2023-04-25T22:41:46.490Z,2.88
2023-04-25T22:44:13.640Z,3.00
2023-04-25T22:46:40.333Z,3.33
2023-04-25T22:49:06.852Z,3.40
2023-04-25T22:51:34.775Z,2.58
2023-04-25T22:54:01.469Z,2.80
2023-04-25T22:56:32.491Z,2.80
2023-04-25T22:58:59.358Z,2.97
2023-04-25T23:01:25.993Z,2.83
2023-04-25T23:03:53.922Z,2.95
2023-04-25T23:06:20.689Z,3.03
2023-04-25T23:08:47.216Z,3.17
2023-04-25T23:11:14.157Z,2.58
2023-04-25T23:13:40.696Z,2.95
2023-04-25T23:16:19.874Z,2.88
2023-04-25T23:18:46.591Z,2.75
2023-04-25T23:21:13.455Z,3.85
2023-04-25T23:23:40.065Z,2.83
2023-04-25T23:26:10.159Z,3.60
2023-04-25T23:28:41.620Z,3.75
2023-04-25T23:31:11.691Z,3.17
2023-04-25T23:33:38.313Z,2.83
2023-04-25T23:36:05.702Z,3.80
2023-04-25T23:38:37.856Z,3.22
2023-04-25T23:41:04.375Z,3.40
2023-04-25T23:43:30.901Z,3.30
2023-04-25T23:46:00.418Z,3.30
2023-04-25T23:48:26.989Z,3.10
2023-04-25T23:50:53.413Z,3.50
2023-04-25T23:53:19.993Z,3.60
2023-04-25T23:55:46.836Z,4.13
2023-04-25T23:58:13.312Z,3.65
